Time;durP1;ratioP1;P1;durP2;ratioP2;P2;SDS_P1;SDS_P2;PMS_P1;PMS_P2;Temp;Humidity;BMP_temperature;BMP_pressure;BME280_temperature;BME280_humidity;BME280_pressure;Samples;Min_cycle;Max_cycle;Signal;HPM_P1;HPM_P2
2021/10/18 00:00:24;;;;;;;4.03;2.25;;;;;;;10.79;60.35;99042.28;3362953;29;20045;-76
2021/10/18 00:02:05;;;;;;;4.32;2.13;;;;;;;10.81;60.12;99039.38;3362363;29;20614;-75
2021/10/18 00:03:46;;;;;;;2.78;2.40;;;;;;;10.82;60.11;99049.03;3362275;29;20131;-76
2021/10/18 00:05:26;;;;;;;5.50;2.45;;;;;;;10.80;60.16;99041.25;3362769;29;20170;-76
2021/10/18 00:07:09;;;;;;;6.57;2.45;;;;;;;10.79;60.35;99044.94;3362692;29;20135;-77
2021/10/18 00:08:50;;;;;;;5.80;2.08;;;;;;;10.80;60.43;99041.25;3362228;29;20064;-76
2021/10/18 00:10:31;;;;;;;2.90;1.85;;;;;;;10.81;60.24;99048.19;3362588;29;20057;-76
2021/10/18 00:12:12;;;;;;;6.63;2.55;;;;;;;10.81;60.36;99042.88;3362905;29;20524;-73
2021/10/18 00:13:53;;;;;;;6.30;2.40;;;;;;;10.88;60.77;99033.00;3362867;29;20557;-73
2021/10/18 00:15:34;;;;;;;5.20;2.10;;;;;;;11.03;60.59;99034.56;3357560;29;20592;-73
2021/10/18 00:17:15;;;;;;;4.40;2.13;;;;;;;11.09;60.26;99033.72;3362805;29;20068;-74
2021/10/18 00:18:55;;;;;;;3.67;2.00;;;;;;;11.09;60.16;99031.03;3362288;29;20080;-73
2021/10/18 00:20:36;;;;;;;3.92;1.85;;;;;;;11.05;60.31;99028.00;3362528;29;20052;-75
2021/10/18 00:22:17;;;;;;;6.05;2.28;;;;;;;11.02;60.17;99023.09;3362499;29;20072;-74
2021/10/18 00:23:58;;;;;;;3.63;2.30;;;;;;;11.07;60.24;99022.44;3362244;29;20068;-78
2021/10/18 00:25:38;;;;;;;4.70;2.22;;;;;;;11.12;59.86;99022.59;3362159;29;20362;-77
2021/10/18 00:27:19;;;;;;;8.55;2.35;;;;;;;11.09;59.96;99029.19;3362613;29;20059;-75
2021/10/18 00:29:00;;;;;;;4.65;2.08;;;;;;;11.03;59.86;99022.06;3361898;29;20093;-74
2021/10/18 00:30:40;;;;;;;4.20;2.10;;;;;;;10.98;59.98;99027.22;3362253;29;20139;-74
2021/10/18 00:32:21;;;;;;;7.45;2.30;;;;;;;10.93;60.34;99021.69;3362006;29;20423;-73
2021/10/18 00:34:02;;;;;;;4.30;2.55;;;;;;;10.88;60.50;99022.34;3362127;29;20037;-74
2021/10/18 00:35:45;;;;;;;5.75;2.13;;;;;;;10.83;60.56;99022.16;3362881;29;20077;-75
2021/10/18 00:37:25;;;;;;;3.42;2.00;;;;;;;10.82;60.81;99023.19;3362444;29;20073;-74
2021/10/18 00:39:06;;;;;;;2.70;2.38;;;;;;;10.83;60.83;99018.69;3361899;29;20085;-74
2021/10/18 00:40:47;;;;;;;5.65;2.25;;;;;;;10.82;60.72;99023.19;3361702;29;20063;-75
2021/10/18 00:42:28;;;;;;;5.47;2.15;;;;;;;10.83;60.78;99018.69;3362068;29;20041;-74
2021/10/18 00:44:10;;;;;;;4.53;2.40;;;;;;;10.84;60.77;99021.13;3362570;29;20052;-74
2021/10/18 00:45:51;;;;;;;5.25;2.47;;;;;;;10.78;60.76;99003.31;3362375;29;20101;-75
2021/10/18 00:47:32;;;;;;;3.75;2.83;;;;;;;10.88;60.65;99017.00;3362287;29;20072;-74
2021/10/18 00:49:13;;;;;;;5.32;2.20;;;;;;;10.90;60.94;99009.63;3361634;29;20048;-76
2021/10/18 00:50:56;;;;;;;4.75;2.20;;;;;;;10.99;61.13;99012.84;3362485;29;20071;-75
2021/10/18 00:52:37;;;;;;;3.25;2.20;;;;;;;11.07;60.79;99014.44;3386738;29;20040;-72
2021/10/18 00:54:18;;;;;;;6.47;2.30;;;;;;;11.09;60.54;99001.72;3366725;29;20627;-74
2021/10/18 00:55:58;;;;;;;2.30;2.10;;;;;;;11.07;60.57;99004.56;3362469;29;20040;-75
2021/10/18 00:57:39;;;;;;;6.70;2.38;;;;;;;11.01;60.69;98999.31;3362427;29;20086;-75
2021/10/18 00:59:20;;;;;;;5.47;2.40;;;;;;;10.98;60.83;99002.41;3360724;29;20137;-77
2021/10/18 01:01:01;;;;;;;5.18;2.08;;;;;;;10.95;60.78;99000.97;3361792;29;20497;-76
2021/10/18 01:02:43;;;;;;;5.65;2.55;;;;;;;10.95;60.63;99000.97;3361427;29;20425;-75
2021/10/18 01:04:23;;;;;;;5.07;2.42;;;;;;;10.94;60.45;99002.00;3361700;29;20096;-75
2021/10/18 01:06:04;;;;;;;6.30;2.88;;;;;;;10.94;60.63;98995.84;3361818;29;20041;-75
2021/10/18 01:07:46;;;;;;;4.78;2.40;;;;;;;10.84;60.76;98994.47;3364337;29;20099;-74
2021/10/18 01:09:27;;;;;;;;;;;;;;;10.91;60.56;98992.56;3364911;29;20509;-74
2021/10/18 01:11:07;;;;;;;7.78;2.45;;;;;;;10.82;60.86;98987.72;3363234;29;19935;-77
2021/10/18 01:12:48;;;;;;;6.55;2.50;;;;;;;10.74;60.98;98994.13;3364839;29;20140;-74
2021/10/18 01:14:29;;;;;;;5.75;2.65;;;;;;;10.73;61.12;98992.47;3389775;29;20044;-74
2021/10/18 01:16:09;;;;;;;4.00;2.42;;;;;;;10.78;61.26;98989.97;3369874;29;20101;-74
2021/10/18 01:17:50;;;;;;;7.25;3.08;;;;;;;10.77;61.08;98990.22;3364630;29;20571;-75
2021/10/18 01:19:32;;;;;;;7.57;3.50;;;;;;;10.75;61.07;98976.28;3364481;29;20049;-76
2021/10/18 01:21:13;;;;;;;3.70;2.72;;;;;;;10.73;60.97;98981.81;3363987;29;20044;-74
2021/10/18 01:22:53;;;;;;;5.55;3.08;;;;;;;10.72;61.05;98984.72;3364464;29;20048;-75
2021/10/18 01:24:35;;;;;;;6.40;2.95;;;;;;;10.71;61.23;98983.88;3364516;29;20105;-76
2021/10/18 01:26:15;;;;;;;4.85;2.78;;;;;;;10.67;61.23;98977.34;3366327;29;21037;-75
2021/10/18 01:27:56;;;;;;;7.35;2.90;;;;;;;10.65;61.19;98985.53;3367858;29;20053;-75
2021/10/18 01:29:37;;;;;;;5.22;2.75;;;;;;;10.71;61.47;98981.19;3366945;29;20504;-76
2021/10/18 01:31:18;;;;;;;6.68;2.83;;;;;;;10.74;61.15;98988.78;3367696;29;20092;-75
2021/10/18 01:32:59;;;;;;;3.75;2.40;;;;;;;10.76;60.98;98981.38;3366863;29;20127;-76
2021/10/18 01:34:39;;;;;;;5.75;3.08;;;;;;;10.83;61.36;98971.50;3365154;29;20037;-74
2021/10/18 01:36:20;;;;;;;6.03;3.50;;;;;;;10.91;60.75;98984.56;3365040;29;20413;-74
2021/10/18 01:38:01;;;;;;;5.78;3.25;;;;;;;11.02;60.78;98975.09;3364495;29;20045;-75
2021/10/18 01:39:42;;;;;;;3.38;2.42;;;;;;;11.10;60.46;98958.84;3364547;29;20533;-76
2021/10/18 01:41:22;;;;;;;4.13;2.47;;;;;;;11.20;60.16;98974.34;3363930;29;20517;-74
2021/10/18 01:43:03;;;;;;;5.80;2.95;;;;;;;11.19;59.91;98970.03;3364528;29;20182;-76
2021/10/18 01:44:44;;;;;;;5.90;2.87;;;;;;;11.20;59.92;98971.66;3364198;29;20045;-77
2021/10/18 01:46:25;;;;;;;8.05;3.33;;;;;;;11.26;59.95;98964.69;3365035;29;20522;-75
2021/10/18 01:48:05;;;;;;;4.53;2.20;;;;;;;11.29;59.90;98974.91;3362983;29;20211;-74
2021/10/18 01:49:46;;;;;;;4.47;2.53;;;;;;;11.36;59.73;98975.69;3364411;29;20172;-76
2021/10/18 01:51:27;;;;;;;5.90;3.22;;;;;;;11.37;59.52;98960.50;3364106;29;20045;-74
2021/10/18 01:53:07;;;;;;;4.63;3.10;;;;;;;11.26;59.51;98960.16;3364042;29;20088;-74
2021/10/18 01:54:48;;;;;;;4.75;2.55;;;;;;;11.22;59.87;98953.59;3365780;29;20067;-74
2021/10/18 01:56:33;;;;;;;7.10;3.00;;;;;;;11.24;59.73;98961.41;3365894;29;20465;-76
2021/10/18 01:58:14;;;;;;;7.32;3.30;;;;;;;11.22;59.54;98958.94;3364958;29;20084;-75
2021/10/18 01:59:55;;;;;;;3.67;2.70;;;;;;;11.19;59.46;98963.91;3363657;29;20052;-75
2021/10/18 02:01:35;;;;;;;8.15;3.13;;;;;;;11.27;59.60;98964.44;3363174;29;20528;-73
2021/10/18 02:03:16;;;;;;;3.83;2.42;;;;;;;11.45;59.44;98960.22;3364271;29;20048;-75
2021/10/18 02:04:57;;;;;;;4.97;3.20;;;;;;;11.52;58.80;98960.97;3363623;29;20113;-75
2021/10/18 02:06:37;;;;;;;8.43;3.92;;;;;;;11.50;58.75;98955.03;3363843;29;20052;-74
2021/10/18 02:08:18;;;;;;;6.68;2.58;;;;;;;11.47;58.52;98950.13;3363889;29;20060;-72
2021/10/18 02:10:00;;;;;;;2.90;2.30;;;;;;;11.43;58.69;98940.94;3363663;29;20070;-73
2021/10/18 02:11:40;;;;;;;4.60;2.60;;;;;;;11.41;58.39;98946.50;3364532;29;20037;-75
2021/10/18 02:13:21;;;;;;;5.13;2.72;;;;;;;11.38;58.44;98951.44;3367514;29;20565;-74
2021/10/18 02:15:02;;;;;;;5.47;2.47;;;;;;;11.32;58.51;98958.47;3367167;29;20111;-75
2021/10/18 02:16:43;;;;;;;7.07;3.15;;;;;;;11.25;58.87;98934.50;3365105;29;20588;-75
2021/10/18 02:18:23;;;;;;;4.18;2.70;;;;;;;11.31;58.67;98946.97;3364803;29;20425;-74
2021/10/18 02:20:06;;;;;;;4.75;2.58;;;;;;;11.27;58.54;98940.44;3364867;29;20086;-75
2021/10/18 02:21:47;;;;;;;6.20;3.05;;;;;;;11.20;58.45;98942.31;3364441;29;20052;-75
2021/10/18 02:23:29;;;;;;;6.60;3.15;;;;;;;11.15;58.52;98934.16;3389214;29;20602;-77
2021/10/18 02:25:11;;;;;;;5.03;3.03;;;;;;;11.02;58.47;98934.25;3370110;29;20155;-75
2021/10/18 02:26:52;;;;;;;8.60;3.00;;;;;;;11.00;58.59;98929.16;3365050;29;20040;-75
2021/10/18 02:28:33;;;;;;;4.57;2.70;;;;;;;11.06;58.86;98944.28;3365166;29;20949;-75
2021/10/18 02:30:14;;;;;;;5.47;2.63;;;;;;;11.11;58.73;98928.47;3364094;29;20104;-73
2021/10/18 02:31:54;;;;;;;3.85;2.78;;;;;;;11.03;58.43;98926.06;3363605;29;20037;-73
2021/10/18 02:33:35;;;;;;;4.32;2.72;;;;;;;10.96;58.57;98929.81;3363363;29;20033;-75
2021/10/18 02:35:18;;;;;;;7.20;3.83;;;;;;;10.88;58.64;98921.03;3363547;29;20037;-74
2021/10/18 02:36:59;;;;;;;5.15;2.50;;;;;;;10.86;58.90;98936.41;3364021;29;20045;-76
2021/10/18 02:38:39;;;;;;;6.70;3.17;;;;;;;10.84;59.00;98930.50;3363844;29;20532;-74
2021/10/18 02:40:20;;;;;;;5.97;2.72;;;;;;;10.84;59.26;98919.84;3363825;29;20045;-74
2021/10/18 02:42:01;;;;;;;8.77;3.05;;;;;;;10.85;59.26;98924.13;3362778;29;20052;-75
2021/10/18 02:43:41;;;;;;;6.55;2.55;;;;;;;10.82;59.09;98927.22;3362955;29;20093;-76
2021/10/18 02:45:22;;;;;;;6.85;2.67;;;;;;;10.75;58.88;98915.78;3363673;29;20048;-76
2021/10/18 02:47:03;;;;;;;7.53;2.92;;;;;;;10.71;59.13;98919.91;3363670;29;20060;-73
2021/10/18 02:48:43;;;;;;;6.05;3.45;;;;;;;10.74;59.14;98922.16;3363133;29;20511;-75
2021/10/18 02:50:24;;;;;;;4.75;2.67;;;;;;;10.70;59.16;98907.63;3363024;29;20136;-73
2021/10/18 02:52:05;;;;;;;4.57;2.58;;;;;;;10.69;59.31;98914.00;3363138;29;20509;-74
2021/10/18 02:53:46;;;;;;;3.87;2.50;;;;;;;10.70;59.34;98918.28;3362875;29;20131;-73
2021/10/18 02:55:27;;;;;;;6.00;2.90;;;;;;;10.69;59.35;98916.66;3363580;29;20285;-74
2021/10/18 02:57:08;;;;;;;4.93;2.72;;;;;;;10.63;59.22;98901.50;3363092;29;20328;-74
2021/10/18 02:58:51;;;;;;;5.63;3.20;;;;;;;10.54;59.46;98905.47;3363179;29;20049;-75
2021/10/18 03:00:32;;;;;;;4.05;2.45;;;;;;;10.48;59.91;98899.97;3363378;29;20041;-74
2021/10/18 03:02:12;;;;;;;5.72;3.03;;;;;;;10.51;59.90;98897.88;3363114;29;20187;-75
2021/10/18 03:03:53;;;;;;;4.75;3.78;;;;;;;10.53;59.89;98890.50;3362923;29;20064;-74
2021/10/18 03:05:35;;;;;;;5.68;3.45;;;;;;;10.50;59.64;98894.41;3361452;29;20136;-76
2021/10/18 03:07:18;;;;;;;6.10;3.67;;;;;;;10.45;60.00;98889.75;3362961;29;20416;-75
2021/10/18 03:08:59;;;;;;;6.25;3.08;;;;;;;10.47;59.80;98887.66;3363642;29;20063;-75
2021/10/18 03:10:41;;;;;;;6.10;3.43;;;;;;;10.43;59.98;98891.78;3363375;29;20041;-75
2021/10/18 03:12:23;;;;;;;11.35;3.90;;;;;;;10.33;60.37;98879.97;3388293;29;20107;-76
2021/10/18 03:14:04;;;;;;;6.05;3.10;;;;;;;10.23;60.47;98883.06;3366975;29;20048;-76
2021/10/18 03:15:45;;;;;;;5.93;3.47;;;;;;;10.18;60.65;98874.88;3363200;29;20045;-75
2021/10/18 03:17:26;;;;;;;8.48;3.50;;;;;;;10.12;60.82;98865.91;3362791;29;20057;-76
2021/10/18 03:19:07;;;;;;;5.00;3.20;;;;;;;10.13;60.95;98875.50;3388079;29;20040;-76
2021/10/18 03:20:48;;;;;;;5.65;3.70;;;;;;;10.01;61.16;98853.22;3367166;29;20132;-74
2021/10/18 03:22:29;;;;;;;6.97;3.72;;;;;;;9.99;60.83;98840.16;3363263;29;20053;-75
2021/10/18 03:24:09;;;;;;;3.90;2.83;;;;;;;10.11;60.90;98869.56;3362445;29;20508;-74
2021/10/18 03:25:50;;;;;;;5.18;2.90;;;;;;;10.13;61.21;98864.06;3363066;29;20987;-76
2021/10/18 03:27:30;;;;;;;3.45;2.83;;;;;;;10.11;61.11;98855.44;3387867;29;20088;-76
2021/10/18 03:29:11;;;;;;;5.50;3.28;;;;;;;10.17;60.96;98859.91;3367559;29;20516;-75
2021/10/18 03:30:52;;;;;;;4.15;3.08;;;;;;;10.10;61.30;98859.97;3361830;29;20497;-75
2021/10/18 03:32:33;;;;;;;4.93;3.40;;;;;;;10.01;61.24;98854.03;3362620;29;20048;-75
2021/10/18 03:34:13;;;;;;;6.43;3.03;;;;;;;10.02;61.41;98855.69;3362476;29;20096;-74
2021/10/18 03:35:54;;;;;;;7.53;3.13;;;;;;;10.00;61.69;98844.44;3362603;29;20040;-75
2021/10/18 03:37:34;;;;;;;5.05;3.58;;;;;;;10.09;61.58;98854.84;3374934;29;20037;-77
2021/10/18 03:39:15;;;;;;;5.55;3.78;;;;;;;10.08;61.47;98855.88;3363177;29;20905;-74
2021/10/18 03:40:56;;;;;;;6.13;3.42;;;;;;;10.08;61.50;98853.22;3362976;29;20420;-75
2021/10/18 03:42:38;;;;;;;6.82;3.45;;;;;;;10.08;61.56;98850.56;3361391;29;20088;-74
2021/10/18 03:44:18;;;;;;;3.13;2.58;;;;;;;10.09;61.58;98841.53;3362175;29;20043;-74
2021/10/18 03:46:00;;;;;;;5.13;4.00;;;;;;;10.15;61.56;98851.34;3362822;29;20041;-76
2021/10/18 03:47:41;;;;;;;5.57;3.30;;;;;;;10.19;61.20;98850.69;3362809;29;20052;-74
2021/10/18 03:49:21;;;;;;;5.82;3.10;;;;;;;10.20;60.97;98843.53;3363252;29;20277;-75
2021/10/18 03:51:02;;;;;;;7.22;2.97;;;;;;;10.26;61.25;98842.69;3362534;29;20414;-73
2021/10/18 03:52:43;;;;;;;5.40;3.13;;;;;;;10.32;61.19;98854.34;3348549;29;20049;-75
2021/10/18 03:54:24;;;;;;;7.28;2.75;;;;;;;10.28;60.77;98845.16;3357962;29;20417;-75
2021/10/18 03:56:05;;;;;;;6.50;3.10;;;;;;;10.20;60.62;98840.88;3361630;29;20040;-74
2021/10/18 03:57:46;;;;;;;5.45;2.97;;;;;;;10.16;61.03;98837.00;3362749;29;20100;-78
2021/10/18 03:59:26;;;;;;;6.88;2.92;;;;;;;10.28;61.06;98845.97;3362912;29;20041;-74
2021/10/18 04:01:09;;;;;;;5.45;2.75;;;;;;;10.39;60.70;98845.28;3363230;29;20120;-72
2021/10/18 04:02:49;;;;;;;7.03;4.50;;;;;;;10.38;60.49;98837.53;3358044;29;20044;-76
2021/10/18 04:04:30;;;;;;;7.43;3.50;;;;;;;10.37;60.68;98835.88;3360392;29;20058;-76
2021/10/18 04:06:11;;;;;;;4.47;3.03;;;;;;;10.38;60.73;98835.69;3361696;29;20056;-78
2021/10/18 04:07:51;;;;;;;4.80;2.80;;;;;;;10.32;60.38;98836.50;3368975;29;20043;-76
2021/10/18 04:09:33;;;;;;;7.40;3.28;;;;;;;10.28;60.74;98830.00;3364399;29;20449;-77
2021/10/18 04:11:13;;;;;;;7.82;3.33;;;;;;;10.30;60.50;98827.94;3362019;29;20049;-76
2021/10/18 04:12:54;;;;;;;5.10;3.13;;;;;;;10.30;60.44;98825.28;3361712;29;20092;-77
2021/10/18 04:14:35;;;;;;;5.72;3.47;;;;;;;10.31;60.58;98834.91;3373397;29;20092;-76
2021/10/18 04:16:17;;;;;;;5.20;3.28;;;;;;;10.29;60.64;98828.97;3364401;29;20045;-76
2021/10/18 04:17:58;;;;;;;6.30;3.22;;;;;;;10.26;60.76;98816.03;3361799;29;20545;-77
2021/10/18 04:19:39;;;;;;;7.95;3.17;;;;;;;10.38;60.77;98826.88;3362773;29;20052;-77
2021/10/18 04:21:19;;;;;;;8.18;3.45;;;;;;;10.44;60.29;98824.16;3363155;29;20049;-76
2021/10/18 04:23:00;;;;;;;4.55;3.40;;;;;;;10.43;60.31;98827.84;3361358;29;20533;-76
2021/10/18 04:24:41;;;;;;;8.18;3.65;;;;;;;10.35;60.17;98822.78;3362615;29;20216;-77
2021/10/18 04:26:22;;;;;;;5.68;3.17;;;;;;;10.19;60.27;98824.06;3361912;29;20045;-77
2021/10/18 04:28:03;;;;;;;11.18;3.55;;;;;;;10.18;60.59;98824.28;3361802;29;20473;-75
2021/10/18 04:29:44;;;;;;;4.03;2.88;;;;;;;10.21;60.65;98815.88;3363138;29;20418;-76
2021/10/18 04:31:28;;;;;;;5.82;3.72;;;;;;;10.20;60.62;98827.56;3362942;29;20413;-76
2021/10/18 04:33:09;;;;;;;7.80;3.42;;;;;;;10.13;60.65;98819.59;3362923;29;20045;-77
2021/10/18 04:34:49;;;;;;;8.18;3.85;;;;;;;10.14;60.85;98820.41;3361922;29;20564;-77
2021/10/18 04:36:30;;;;;;;7.28;3.53;;;;;;;10.06;60.85;98816.16;3362776;29;20537;-79
2021/10/18 04:38:11;;;;;;;11.02;3.92;;;;;;;10.04;61.12;98815.53;3387555;29;20044;-76
2021/10/18 04:39:52;;;;;;;4.93;3.55;;;;;;;10.07;61.16;98819.63;3368174;29;20096;-77
2021/10/18 04:41:33;;;;;;;6.78;4.45;;;;;;;10.05;61.09;98814.53;3365158;29;20048;-78
2021/10/18 04:43:14;;;;;;;4.93;3.42;;;;;;;9.93;61.37;98792.25;3390443;29;20511;-77
2021/10/18 04:45:07;;;;;;;6.30;3.20;;;;;;;9.84;61.70;98794.34;3369637;29;20049;-80
2021/10/18 04:46:53;;;;;;;6.95;4.22;;;;;;;9.96;61.67;98800.63;3365952;29;20102;-81
2021/10/18 04:48:33;;;;;;;11.85;3.83;;;;;;;10.00;61.89;98820.47;3363614;29;20056;-79
2021/10/18 04:50:16;;;;;;;5.75;3.22;;;;;;;10.00;62.14;98817.81;3365215;29;20041;-78
2021/10/18 04:51:56;;;;;;;;;;;;;;;10.14;61.80;98815.09;3377057;29;20135;-80
2021/10/18 04:53:37;;;;;;;5.05;3.17;;;;;;;10.14;62.13;98807.91;3363047;29;19924;-78
2021/10/18 04:55:36;;;;;;;4.97;3.47;;;;;;;10.17;62.07;98807.50;3352865;29;20135;-80
2021/10/18 04:57:36;;;;;;;6.10;4.35;;;;;;;10.03;61.82;98790.75;3367670;29;20045;-79
2021/10/18 05:00:00;;;;;;;6.20;3.85;;;;;;;9.88;62.20;98779.59;3365903;29;20067;-83
2021/10/18 05:01:54;;;;;;;8.38;4.07;;;;;;;9.88;62.06;98792.88;3365568;29;20465;-83
2021/10/18 05:03:37;;;;;;;8.85;4.20;;;;;;;9.74;62.04;98770.03;3366847;29;20045;-81
2021/10/18 05:05:19;;;;;;;7.88;4.25;;;;;;;9.92;62.16;98809.28;3366054;29;20104;-81
2021/10/18 05:06:59;;;;;;;10.77;4.18;;;;;;;9.91;62.38;98803.09;3363013;29;20425;-80
2021/10/18 05:08:40;;;;;;;5.53;3.65;;;;;;;9.92;62.70;98807.41;3367403;29;20094;-81
2021/10/18 05:10:21;;;;;;;6.93;3.83;;;;;;;9.98;62.77;98811.88;3365397;29;20045;-81
2021/10/18 05:12:03;;;;;;;11.00;3.90;;;;;;;10.01;63.01;98807.97;3367697;29;20041;-80
2021/10/18 05:13:44;;;;;;;8.43;4.18;;;;;;;10.00;62.73;98811.69;3366954;29;20044;-81
2021/10/18 05:15:24;;;;;;;7.93;4.38;;;;;;;9.96;62.62;98791.81;3365920;29;20073;-82
2021/10/18 05:17:06;;;;;;;9.80;4.22;;;;;;;9.97;62.63;98804.94;3366299;29;20052;-81
2021/10/18 05:18:47;;;;;;;13.25;5.55;;;;;;;9.77;62.59;98780.25;3366244;29;20053;-81
2021/10/18 05:20:28;;;;;;;6.45;4.07;;;;;;;9.92;62.94;98812.75;3365863;29;20040;-77
2021/10/18 05:22:09;;;;;;;6.90;4.30;;;;;;;9.67;62.69;98770.06;3364186;29;20045;-81
2021/10/18 05:23:50;;;;;;;6.30;4.25;;;;;;;9.90;62.75;98806.81;3363331;29;20068;-79
2021/10/18 05:25:31;;;;;;;7.70;4.93;;;;;;;9.69;62.63;98772.53;3374055;29;20044;-78
2021/10/18 05:27:11;;;;;;;8.85;3.70;;;;;;;9.91;63.05;98807.63;3364324;29;20048;-79
2021/10/18 05:28:52;;;;;;;6.68;3.92;;;;;;;9.88;63.21;98802.72;3364506;29;20113;-78
2021/10/18 05:30:33;;;;;;;11.65;5.18;;;;;;;9.88;63.21;98814.19;3363651;29;20066;-82
2021/10/18 05:32:13;;;;;;;5.93;3.60;;;;;;;9.86;63.47;98805.63;3363693;29;20389;-79
2021/10/18 05:33:54;;;;;;;8.73;3.90;;;;;;;9.91;63.46;98805.75;3352860;29;20982;-80
2021/10/18 05:35:36;;;;;;;9.07;4.32;;;;;;;9.94;62.99;98805.38;3357680;29;20041;-78
2021/10/18 05:37:17;;;;;;;4.70;3.25;;;;;;;9.93;63.18;98805.56;3351080;29;20045;-80
2021/10/18 05:38:58;;;;;;;8.07;3.67;;;;;;;9.90;63.39;98800.69;3352213;29;20132;-78
2021/10/18 05:40:38;;;;;;;5.68;4.03;;;;;;;10.01;64.09;98803.47;3353022;29;20432;-77
2021/10/18 05:42:19;;;;;;;5.78;3.45;;;;;;;10.15;64.16;98800.75;3347319;29;20084;-82
2021/10/18 05:44:00;;;;;;;7.78;4.07;;;;;;;10.33;63.71;98814.19;3359340;29;20413;-77
2021/10/18 05:45:41;;;;;;;6.28;4.10;;;;;;;10.37;63.28;98811.91;3364252;29;20056;-76
2021/10/18 05:47:22;;;;;;;6.70;3.60;;;;;;;10.38;63.46;98806.38;3364462;29;20097;-75
2021/10/18 05:49:03;;;;;;;8.13;3.85;;;;;;;10.41;63.43;98805.94;3364812;29;20316;-78
2021/10/18 05:50:45;;;;;;;7.53;3.80;;;;;;;10.48;62.98;98806.72;3358485;29;20048;-76
2021/10/18 05:52:28;;;;;;;;;;;;;;;10.60;62.80;98811.34;3363559;29;20215;-75
2021/10/18 05:54:08;;;;;;;8.98;4.05;;;;;;;10.51;62.84;98791.31;3364856;29;19923;-76
2021/10/18 05:55:49;;;;;;;6.00;3.97;;;;;;;10.46;62.97;98797.31;3364047;29;20048;-76
2021/10/18 05:57:30;;;;;;;6.63;3.75;;;;;;;10.39;63.04;98800.00;3363731;29;20429;-75
2021/10/18 05:59:10;;;;;;;5.20;3.78;;;;;;;10.20;63.34;98783.09;3364891;29;20047;-75
2021/10/18 06:00:51;;;;;;;7.43;3.58;;;;;;;10.18;63.70;98776.34;3363945;29;20425;-76
2021/10/18 06:02:32;;;;;;;7.20;4.50;;;;;;;10.10;63.57;98750.00;3364340;29;20040;-74
2021/10/18 06:04:12;;;;;;;5.65;3.78;;;;;;;10.40;64.07;98800.81;3364280;29;20045;-75
2021/10/18 06:05:53;;;;;;;4.72;3.60;;;;;;;10.44;63.84;98800.19;3363392;29;20072;-76
2021/10/18 06:07:34;;;;;;;6.72;4.47;;;;;;;10.47;63.67;98796.28;3389281;29;20044;-77
2021/10/18 06:09:14;;;;;;;8.25;3.22;;;;;;;10.45;63.48;98795.66;3369126;29;20099;-76
2021/10/18 06:10:55;;;;;;;3.95;3.53;;;;;;;10.51;63.42;98791.31;3363244;29;20045;-76
2021/10/18 06:12:37;;;;;;;5.93;3.42;;;;;;;10.50;63.32;98789.69;3363663;29;20135;-76
2021/10/18 06:14:17;;;;;;;7.57;3.03;;;;;;;10.47;63.36;98794.41;3363714;29;20148;-78
2021/10/18 06:15:58;;;;;;;8.45;3.45;;;;;;;10.59;63.40;98804.41;3363370;29;20049;-76
2021/10/18 06:17:41;;;;;;;9.85;4.25;;;;;;;10.68;63.15;98803.06;3363971;29;20124;-75
2021/10/18 06:19:22;;;;;;;5.22;3.20;;;;;;;10.68;62.70;98803.06;3364054;29;20061;-77
2021/10/18 06:21:02;;;;;;;4.28;3.22;;;;;;;10.56;62.89;98799.47;3363960;29;20146;-76
2021/10/18 06:22:43;;;;;;;8.70;3.80;;;;;;;10.54;62.88;98796.22;3363222;29;20059;-77
2021/10/18 06:24:24;;;;;;;6.60;3.35;;;;;;;10.53;62.91;98799.91;3363555;29;20096;-77
2021/10/18 06:26:04;;;;;;;5.82;3.75;;;;;;;10.51;63.01;98796.63;3363442;29;20446;-75
2021/10/18 06:27:45;;;;;;;7.07;4.28;;;;;;;10.48;62.96;98803.25;3363617;29;20131;-75
2021/10/18 06:29:27;;;;;;;6.90;3.20;;;;;;;10.43;63.32;98806.56;3362817;29;20037;-76
2021/10/18 06:31:08;;;;;;;6.40;3.15;;;;;;;10.56;63.52;98810.13;3377925;29;20053;-76
2021/10/18 06:32:49;;;;;;;9.43;3.17;;;;;;;10.71;63.28;98805.31;3377841;29;20041;-76
2021/10/18 06:34:29;;;;;;;8.13;2.97;;;;;;;10.85;62.79;98806.84;3363347;29;20483;-75
2021/10/18 06:36:11;;;;;;;8.73;3.25;;;;;;;11.04;62.63;98813.03;3363419;29;20045;-75
2021/10/18 06:37:52;;;;;;;8.55;4.05;;;;;;;11.13;62.23;98808.25;3361701;29;20045;-78
2021/10/18 06:39:33;;;;;;;6.20;3.22;;;;;;;11.21;62.10;98820.47;3362986;29;20047;-74
2021/10/18 06:41:13;;;;;;;4.53;3.20;;;;;;;11.35;62.05;98814.78;3363560;29;20502;-75
2021/10/18 06:42:54;;;;;;;7.35;2.70;;;;;;;11.47;61.40;98816.72;3362235;29;20097;-76
2021/10/18 06:44:35;;;;;;;5.82;2.55;;;;;;;11.56;61.22;98831.38;3362786;29;20418;-76
2021/10/18 06:46:16;;;;;;;6.32;2.88;;;;;;;11.69;60.36;98844.59;3363124;29;20482;-76
2021/10/18 06:47:57;;;;;;;6.07;2.15;;;;;;;11.81;60.52;98841.19;3362973;29;20177;-74
2021/10/18 06:49:38;;;;;;;3.90;1.63;;;;;;;12.07;60.04;98838.22;3363419;29;20141;-75
2021/10/18 06:51:18;;;;;;;3.38;1.42;;;;;;;12.37;58.71;98832.06;3387505;29;20043;-73
2021/10/18 06:52:59;;;;;;;2.55;1.25;;;;;;;12.46;57.34;98841.38;3367722;29;20041;-75
2021/10/18 06:54:41;;;;;;;2.05;1.15;;;;;;;12.35;56.93;98850.19;3362767;29;20401;-74
2021/10/18 06:56:22;;;;;;;2.70;1.23;;;;;;;12.25;56.71;98853.41;3363085;29;20052;-75
2021/10/18 06:58:03;;;;;;;2.08;1.02;;;;;;;12.08;56.59;98850.53;3362861;29;20076;-76
2021/10/18 06:59:43;;;;;;;1.85;0.95;;;;;;;11.94;56.68;98859.75;3363641;29;20409;-76
2021/10/18 07:01:24;;;;;;;0.82;0.70;;;;;;;11.82;56.76;98869.50;3361563;29;20069;-69
2021/10/18 07:03:05;;;;;;;1.15;0.70;;;;;;;11.69;56.68;98875.81;3348089;29;20038;-68
2021/10/18 07:04:46;;;;;;;1.05;0.80;;;;;;;11.55;56.82;98861.78;3359294;29;20061;-70
2021/10/18 07:06:27;;;;;;;2.28;0.90;;;;;;;11.41;56.96;98874.47;3361932;29;20533;-70
2021/10/18 07:08:07;;;;;;;1.23;0.90;;;;;;;11.30;57.09;98878.63;3361851;29;20101;-70
2021/10/18 07:09:49;;;;;;;0.90;0.90;;;;;;;11.19;57.29;98884.69;3361255;29;20511;-70
2021/10/18 07:11:31;;;;;;;0.77;0.77;;;;;;;11.08;57.58;98888.09;3361268;29;20056;-71
2021/10/18 07:13:12;;;;;;;0.73;0.70;;;;;;;10.99;57.78;98897.38;3362019;29;20048;-71
2021/10/18 07:14:54;;;;;;;1.75;0.93;;;;;;;10.89;58.21;98897.84;3362353;29;20041;-71
2021/10/18 07:16:34;;;;;;;2.13;1.17;;;;;;;10.81;58.25;98893.59;3360711;29;20048;-70
2021/10/18 07:18:15;;;;;;;0.88;0.70;;;;;;;10.69;58.46;98908.66;3360452;29;20101;-70
2021/10/18 07:19:58;;;;;;;1.13;0.55;;;;;;;10.55;58.57;98905.25;3349907;29;20382;-70
2021/10/18 07:21:41;;;;;;;3.47;1.30;;;;;;;10.44;58.83;98919.25;3362062;29;20055;-71
2021/10/18 07:23:23;;;;;;;2.80;0.90;;;;;;;10.26;58.91;98914.56;3362226;29;20041;-68
2021/10/18 07:25:05;;;;;;;1.45;0.85;;;;;;;10.21;59.13;98925.06;3362003;29;20053;-70
2021/10/18 07:26:50;;;;;;;2.28;0.75;;;;;;;10.16;59.25;98936.31;3361743;29;20107;-71
2021/10/18 07:28:31;;;;;;;0.60;0.60;;;;;;;10.07;58.97;98937.59;3351406;29;20486;-70
2021/10/18 07:30:14;;;;;;;2.33;0.65;;;;;;;10.00;58.95;98923.47;3355924;29;20048;-70
2021/10/18 07:31:55;;;;;;;4.05;0.80;;;;;;;9.99;58.94;98916.50;3354514;29;20136;-71
2021/10/18 07:33:36;;;;;;;0.77;0.70;;;;;;;9.93;58.65;98907.53;3361143;29;20417;-72
2021/10/18 07:35:19;;;;;;;0.68;0.52;;;;;;;9.95;58.66;98913.47;3358054;29;20049;-70
2021/10/18 07:37:02;;;;;;;2.42;0.73;;;;;;;9.90;58.47;98917.78;3361599;29;20429;-70
2021/10/18 07:38:43;;;;;;;1.02;0.68;;;;;;;9.87;58.17;98926.19;3358702;29;20041;-72
2021/10/18 07:40:27;;;;;;;0.52;0.50;;;;;;;9.80;58.13;98928.84;3358293;29;20127;-72
2021/10/18 07:42:13;;;;;;;2.05;0.98;;;;;;;9.77;58.24;98929.28;3361101;29;20097;-72
2021/10/18 07:43:54;;;;;;;1.40;0.70;;;;;;;9.66;57.99;98925.41;3361531;29;20387;-73
2021/10/18 07:45:35;;;;;;;1.08;0.70;;;;;;;9.68;58.01;98935.84;3362223;29;20052;-73
2021/10/18 07:47:15;;;;;;;0.95;0.50;;;;;;;9.68;58.03;98941.16;3363187;29;20041;-73
2021/10/18 07:48:56;;;;;;;2.30;0.80;;;;;;;9.61;57.92;98943.84;3363024;29;20045;-72
2021/10/18 07:50:37;;;;;;;1.52;1.00;;;;;;;9.50;58.39;98937.31;3361914;29;20037;-72
2021/10/18 07:52:18;;;;;;;2.47;0.50;;;;;;;9.44;58.34;98940.78;3360798;29;20076;-72
2021/10/18 07:53:59;;;;;;;0.90;0.70;;;;;;;9.37;58.45;98931.97;3362382;29;20069;-73
2021/10/18 07:55:40;;;;;;;3.25;0.95;;;;;;;9.27;58.75;98931.59;3362338;29;20505;-72
2021/10/18 07:57:21;;;;;;;2.10;0.65;;;;;;;9.27;58.75;98923.63;3362509;29;20093;-72